sensor_id;sensor_type;location;lat;lon;timestamp;temperature;humidity
22364;DHT22;11349;53.412;-1.328;2023-12-20T00:01:49;8.10;99.90
22364;DHT22;11349;53.412;-1.328;2023-12-20T00:04:15;7.90;99.90
22364;DHT22;11349;53.412;-1.328;2023-12-20T00:06:41;7.80;99.90
22364;DHT22;11349;53.412;-1.328;2023-12-20T00:09:06;7.80;99.90
22364;DHT22;11349;53.412;-1.328;2023-12-20T00:11:32;7.70;99.90
22364;DHT22;11349;53.412;-1.328;2023-12-20T00:13:58;7.80;99.90
22364;DHT22;11349;53.412;-1.328;2023-12-20T00:16:23;8.30;99.90
22364;DHT22;11349;53.412;-1.328;2023-12-20T00:18:49;8.10;99.90
22364;DHT22;11349;53.412;-1.328;2023-12-20T00:21:15;7.90;99.90
22364;DHT22;11349;53.412;-1.328;2023-12-20T00:23:40;7.90;99.90
22364;DHT22;11349;53.412;-1.328;2023-12-20T00:26:06;7.90;99.90
22364;DHT22;11349;53.412;-1.328;2023-12-20T00:28:32;7.90;99.90
22364;DHT22;11349;53.412;-1.328;2023-12-20T00:30:58;8.00;99.90
22364;DHT22;11349;53.412;-1.328;2023-12-20T00:33:23;8.00;99.90
22364;DHT22;11349;53.412;-1.328;2023-12-20T00:35:50;8.00;99.90
22364;DHT22;11349;53.412;-1.328;2023-12-20T00:38:16;8.20;99.90
22364;DHT22;11349;53.412;-1.328;2023-12-20T00:40:41;8.20;99.90
22364;DHT22;11349;53.412;-1.328;2023-12-20T00:43:07;8.40;99.90
22364;DHT22;11349;53.412;-1.328;2023-12-20T00:45:33;8.30;99.90
22364;DHT22;11349;53.412;-1.328;2023-12-20T00:47:58;8.50;99.90
22364;DHT22;11349;53.412;-1.328;2023-12-20T00:50:24;8.30;99.90
22364;DHT22;11349;53.412;-1.328;2023-12-20T00:52:50;8.30;99.90
22364;DHT22;11349;53.412;-1.328;2023-12-20T00:55:16;8.30;99.90
22364;DHT22;11349;53.412;-1.328;2023-12-20T00:57:42;8.30;99.90
22364;DHT22;11349;53.412;-1.328;2023-12-20T01:00:08;8.20;99.90
22364;DHT22;11349;53.412;-1.328;2023-12-20T01:02:36;8.20;99.90
22364;DHT22;11349;53.412;-1.328;2023-12-20T01:05:02;8.40;99.90
22364;DHT22;11349;53.412;-1.328;2023-12-20T01:07:28;8.30;99.90
22364;DHT22;11349;53.412;-1.328;2023-12-20T01:09:54;8.40;99.90
22364;DHT22;11349;53.412;-1.328;2023-12-20T01:12:19;8.30;99.90
22364;DHT22;11349;53.412;-1.328;2023-12-20T01:14:46;8.40;99.90
22364;DHT22;11349;53.412;-1.328;2023-12-20T01:17:11;8.40;99.90
22364;DHT22;11349;53.412;-1.328;2023-12-20T01:19:37;8.30;99.90
22364;DHT22;11349;53.412;-1.328;2023-12-20T01:22:03;8.40;99.90
22364;DHT22;11349;53.412;-1.328;2023-12-20T01:24:29;8.40;99.90
22364;DHT22;11349;53.412;-1.328;2023-12-20T01:26:54;8.40;99.90
22364;DHT22;11349;53.412;-1.328;2023-12-20T01:29:20;8.50;99.90
22364;DHT22;11349;53.412;-1.328;2023-12-20T01:31:46;8.40;99.90
22364;DHT22;11349;53.412;-1.328;2023-12-20T01:34:12;8.70;99.90
22364;DHT22;11349;53.412;-1.328;2023-12-20T01:36:38;8.50;99.90
22364;DHT22;11349;53.412;-1.328;2023-12-20T01:39:03;8.40;99.90
22364;DHT22;11349;53.412;-1.328;2023-12-20T01:41:29;8.50;99.90
22364;DHT22;11349;53.412;-1.328;2023-12-20T01:43:55;8.60;99.90
22364;DHT22;11349;53.412;-1.328;2023-12-20T01:46:21;9.00;99.90
22364;DHT22;11349;53.412;-1.328;2023-12-20T01:48:48;8.90;99.90
22364;DHT22;11349;53.412;-1.328;2023-12-20T01:51:14;8.70;99.90
22364;DHT22;11349;53.412;-1.328;2023-12-20T01:53:40;8.60;99.90
22364;DHT22;11349;53.412;-1.328;2023-12-20T01:56:07;8.80;99.90
22364;DHT22;11349;53.412;-1.328;2023-12-20T01:58:33;8.90;99.90
22364;DHT22;11349;53.412;-1.328;2023-12-20T02:00:59;8.70;99.90
22364;DHT22;11349;53.412;-1.328;2023-12-20T02:03:25;9.00;99.90
22364;DHT22;11349;53.412;-1.328;2023-12-20T02:05:51;8.80;99.90
22364;DHT22;11349;53.412;-1.328;2023-12-20T02:08:18;8.50;99.90
22364;DHT22;11349;53.412;-1.328;2023-12-20T02:10:44;8.60;99.90
22364;DHT22;11349;53.412;-1.328;2023-12-20T02:13:10;8.60;99.90
22364;DHT22;11349;53.412;-1.328;2023-12-20T02:15:36;8.50;99.90
22364;DHT22;11349;53.412;-1.328;2023-12-20T02:18:03;8.50;99.90
22364;DHT22;11349;53.412;-1.328;2023-12-20T02:20:29;8.60;99.90
22364;DHT22;11349;53.412;-1.328;2023-12-20T02:22:54;8.90;99.90
22364;DHT22;11349;53.412;-1.328;2023-12-20T02:25:20;8.70;99.90
22364;DHT22;11349;53.412;-1.328;2023-12-20T02:27:46;9.20;99.90
22364;DHT22;11349;53.412;-1.328;2023-12-20T02:30:12;8.90;99.90
22364;DHT22;11349;53.412;-1.328;2023-12-20T02:32:38;8.90;99.90
22364;DHT22;11349;53.412;-1.328;2023-12-20T02:35:03;8.80;99.90
22364;DHT22;11349;53.412;-1.328;2023-12-20T02:37:29;8.60;99.90
22364;DHT22;11349;53.412;-1.328;2023-12-20T02:39:55;8.70;99.90
22364;DHT22;11349;53.412;-1.328;2023-12-20T02:42:21;8.80;99.90
22364;DHT22;11349;53.412;-1.328;2023-12-20T02:44:46;8.80;99.90
22364;DHT22;11349;53.412;-1.328;2023-12-20T02:47:12;8.80;99.90
22364;DHT22;11349;53.412;-1.328;2023-12-20T02:49:38;8.80;99.90
22364;DHT22;11349;53.412;-1.328;2023-12-20T02:52:04;8.80;99.90
22364;DHT22;11349;53.412;-1.328;2023-12-20T02:54:29;8.80;99.90
22364;DHT22;11349;53.412;-1.328;2023-12-20T02:56:55;8.80;99.90
22364;DHT22;11349;53.412;-1.328;2023-12-20T02:59:21;8.90;99.90
22364;DHT22;11349;53.412;-1.328;2023-12-20T03:01:47;8.80;99.90
22364;DHT22;11349;53.412;-1.328;2023-12-20T03:04:12;8.80;99.90
22364;DHT22;11349;53.412;-1.328;2023-12-20T03:06:38;8.80;99.90
22364;DHT22;11349;53.412;-1.328;2023-12-20T03:09:04;8.90;99.90
22364;DHT22;11349;53.412;-1.328;2023-12-20T03:11:30;9.20;99.90
22364;DHT22;11349;53.412;-1.328;2023-12-20T03:13:56;9.10;99.90
22364;DHT22;11349;53.412;-1.328;2023-12-20T03:16:22;9.00;99.90
22364;DHT22;11349;53.412;-1.328;2023-12-20T03:18:48;9.30;99.90
22364;DHT22;11349;53.412;-1.328;2023-12-20T03:21:14;9.10;99.90
22364;DHT22;11349;53.412;-1.328;2023-12-20T03:23:40;9.00;99.90
22364;DHT22;11349;53.412;-1.328;2023-12-20T03:26:09;8.90;99.90
22364;DHT22;11349;53.412;-1.328;2023-12-20T03:28:36;9.10;99.90
22364;DHT22;11349;53.412;-1.328;2023-12-20T03:31:02;9.30;99.90
22364;DHT22;11349;53.412;-1.328;2023-12-20T03:33:28;9.10;99.90
22364;DHT22;11349;53.412;-1.328;2023-12-20T03:35:54;8.90;99.90
22364;DHT22;11349;53.412;-1.328;2023-12-20T03:38:20;9.00;99.90
22364;DHT22;11349;53.412;-1.328;2023-12-20T03:40:46;9.00;99.90
22364;DHT22;11349;53.412;-1.328;2023-12-20T03:43:12;9.00;99.90
22364;DHT22;11349;53.412;-1.328;2023-12-20T03:45:37;9.00;99.90
22364;DHT22;11349;53.412;-1.328;2023-12-20T03:48:04;9.00;99.90
22364;DHT22;11349;53.412;-1.328;2023-12-20T03:50:30;8.90;99.90
22364;DHT22;11349;53.412;-1.328;2023-12-20T03:52:55;8.90;99.90
22364;DHT22;11349;53.412;-1.328;2023-12-20T03:55:21;8.90;99.90
22364;DHT22;11349;53.412;-1.328;2023-12-20T03:57:47;9.30;99.90
22364;DHT22;11349;53.412;-1.328;2023-12-20T04:00:13;9.30;99.90
22364;DHT22;11349;53.412;-1.328;2023-12-20T04:02:42;9.10;99.90
22364;DHT22;11349;53.412;-1.328;2023-12-20T04:05:09;9.00;99.90
22364;DHT22;11349;53.412;-1.328;2023-12-20T04:07:38;9.10;99.90
22364;DHT22;11349;53.412;-1.328;2023-12-20T04:10:04;9.10;99.90
22364;DHT22;11349;53.412;-1.328;2023-12-20T04:12:30;9.00;99.90
22364;DHT22;11349;53.412;-1.328;2023-12-20T04:14:57;9.10;99.90
22364;DHT22;11349;53.412;-1.328;2023-12-20T04:17:23;9.00;99.90
22364;DHT22;11349;53.412;-1.328;2023-12-20T04:19:49;9.10;99.90
22364;DHT22;11349;53.412;-1.328;2023-12-20T04:22:15;9.10;99.90
22364;DHT22;11349;53.412;-1.328;2023-12-20T04:24:41;9.10;99.90
22364;DHT22;11349;53.412;-1.328;2023-12-20T04:27:10;9.20;99.90
22364;DHT22;11349;53.412;-1.328;2023-12-20T04:29:36;9.10;99.90
22364;DHT22;11349;53.412;-1.328;2023-12-20T04:32:01;9.00;99.90
22364;DHT22;11349;53.412;-1.328;2023-12-20T04:34:27;8.90;99.90
22364;DHT22;11349;53.412;-1.328;2023-12-20T04:36:53;8.90;99.90
22364;DHT22;11349;53.412;-1.328;2023-12-20T04:39:19;9.00;99.90
22364;DHT22;11349;53.412;-1.328;2023-12-20T04:41:45;8.90;99.90
22364;DHT22;11349;53.412;-1.328;2023-12-20T04:44:10;8.90;99.90
22364;DHT22;11349;53.412;-1.328;2023-12-20T04:46:36;9.00;99.90
22364;DHT22;11349;53.412;-1.328;2023-12-20T04:49:02;8.90;99.90
22364;DHT22;11349;53.412;-1.328;2023-12-20T04:51:27;8.80;99.90
22364;DHT22;11349;53.412;-1.328;2023-12-20T04:53:53;8.80;99.90
22364;DHT22;11349;53.412;-1.328;2023-12-20T04:56:19;8.70;99.90
22364;DHT22;11349;53.412;-1.328;2023-12-20T04:58:45;8.80;99.90
22364;DHT22;11349;53.412;-1.328;2023-12-20T05:01:11;8.80;99.90
22364;DHT22;11349;53.412;-1.328;2023-12-20T05:03:37;8.70;99.90
22364;DHT22;11349;53.412;-1.328;2023-12-20T05:06:03;8.60;99.90
22364;DHT22;11349;53.412;-1.328;2023-12-20T05:08:29;8.60;99.90
22364;DHT22;11349;53.412;-1.328;2023-12-20T05:10:55;8.60;99.90
22364;DHT22;11349;53.412;-1.328;2023-12-20T05:13:21;8.60;99.90
22364;DHT22;11349;53.412;-1.328;2023-12-20T05:15:46;8.60;99.90
22364;DHT22;11349;53.412;-1.328;2023-12-20T05:18:12;8.80;99.90
22364;DHT22;11349;53.412;-1.328;2023-12-20T05:20:38;8.60;99.90
22364;DHT22;11349;53.412;-1.328;2023-12-20T05:23:04;8.60;99.90
22364;DHT22;11349;53.412;-1.328;2023-12-20T05:25:30;8.60;99.90
22364;DHT22;11349;53.412;-1.328;2023-12-20T05:27:56;8.50;99.90
22364;DHT22;11349;53.412;-1.328;2023-12-20T05:30:22;8.40;99.90
22364;DHT22;11349;53.412;-1.328;2023-12-20T05:32:47;8.50;99.90
22364;DHT22;11349;53.412;-1.328;2023-12-20T05:35:13;8.50;99.90
22364;DHT22;11349;53.412;-1.328;2023-12-20T05:37:39;8.50;99.90
22364;DHT22;11349;53.412;-1.328;2023-12-20T05:40:05;8.40;99.90
22364;DHT22;11349;53.412;-1.328;2023-12-20T05:42:31;8.40;99.90
22364;DHT22;11349;53.412;-1.328;2023-12-20T05:44:57;8.40;99.90
22364;DHT22;11349;53.412;-1.328;2023-12-20T05:47:22;8.60;99.90
22364;DHT22;11349;53.412;-1.328;2023-12-20T05:49:48;8.50;99.90
22364;DHT22;11349;53.412;-1.328;2023-12-20T05:52:15;8.50;99.90
22364;DHT22;11349;53.412;-1.328;2023-12-20T05:54:41;8.40;99.90
22364;DHT22;11349;53.412;-1.328;2023-12-20T05:57:07;8.50;99.90
22364;DHT22;11349;53.412;-1.328;2023-12-20T05:59:32;8.50;99.90
22364;DHT22;11349;53.412;-1.328;2023-12-20T06:01:58;8.50;99.90
22364;DHT22;11349;53.412;-1.328;2023-12-20T06:04:24;8.50;99.90
22364;DHT22;11349;53.412;-1.328;2023-12-20T06:06:50;8.50;99.90
22364;DHT22;11349;53.412;-1.328;2023-12-20T06:09:15;8.40;99.90
22364;DHT22;11349;53.412;-1.328;2023-12-20T06:11:42;8.50;99.90
22364;DHT22;11349;53.412;-1.328;2023-12-20T06:14:08;8.60;99.90
22364;DHT22;11349;53.412;-1.328;2023-12-20T06:16:33;8.60;99.90
22364;DHT22;11349;53.412;-1.328;2023-12-20T06:18:59;8.60;99.90
22364;DHT22;11349;53.412;-1.328;2023-12-20T06:21:25;8.60;99.90
22364;DHT22;11349;53.412;-1.328;2023-12-20T06:23:50;8.60;99.90
22364;DHT22;11349;53.412;-1.328;2023-12-20T06:26:16;8.70;99.90
22364;DHT22;11349;53.412;-1.328;2023-12-20T06:28:42;8.70;99.90
22364;DHT22;11349;53.412;-1.328;2023-12-20T06:31:08;8.70;99.90
22364;DHT22;11349;53.412;-1.328;2023-12-20T06:33:34;8.70;99.90
22364;DHT22;11349;53.412;-1.328;2023-12-20T06:36:00;8.80;99.90
22364;DHT22;11349;53.412;-1.328;2023-12-20T06:38:26;8.80;99.90
22364;DHT22;11349;53.412;-1.328;2023-12-20T06:40:52;8.80;99.90
22364;DHT22;11349;53.412;-1.328;2023-12-20T06:43:17;8.80;99.90
22364;DHT22;11349;53.412;-1.328;2023-12-20T06:45:43;8.80;99.90
22364;DHT22;11349;53.412;-1.328;2023-12-20T06:48:09;8.80;99.90
22364;DHT22;11349;53.412;-1.328;2023-12-20T06:50:36;8.80;99.90
22364;DHT22;11349;53.412;-1.328;2023-12-20T06:53:05;8.80;99.90
22364;DHT22;11349;53.412;-1.328;2023-12-20T06:55:35;8.80;99.90
22364;DHT22;11349;53.412;-1.328;2023-12-20T06:58:03;8.80;99.90
22364;DHT22;11349;53.412;-1.328;2023-12-20T07:00:30;8.80;99.90
22364;DHT22;11349;53.412;-1.328;2023-12-20T07:02:55;8.80;99.90
22364;DHT22;11349;53.412;-1.328;2023-12-20T07:05:21;8.70;99.90
22364;DHT22;11349;53.412;-1.328;2023-12-20T07:07:47;8.90;99.90
22364;DHT22;11349;53.412;-1.328;2023-12-20T07:10:16;8.80;99.90
22364;DHT22;11349;53.412;-1.328;2023-12-20T07:12:42;8.90;99.90
22364;DHT22;11349;53.412;-1.328;2023-12-20T07:15:08;8.90;99.90
22364;DHT22;11349;53.412;-1.328;2023-12-20T07:17:34;9.00;99.90
22364;DHT22;11349;53.412;-1.328;2023-12-20T07:20:03;8.90;99.90
22364;DHT22;11349;53.412;-1.328;2023-12-20T07:22:30;9.00;99.90
22364;DHT22;11349;53.412;-1.328;2023-12-20T07:24:59;8.90;99.90
22364;DHT22;11349;53.412;-1.328;2023-12-20T07:27:26;8.90;99.90
22364;DHT22;11349;53.412;-1.328;2023-12-20T07:29:52;8.80;99.90
22364;DHT22;11349;53.412;-1.328;2023-12-20T07:32:17;8.70;99.90
22364;DHT22;11349;53.412;-1.328;2023-12-20T07:34:43;8.80;99.90
22364;DHT22;11349;53.412;-1.328;2023-12-20T07:37:09;8.80;99.90
22364;DHT22;11349;53.412;-1.328;2023-12-20T07:39:42;8.80;99.90
22364;DHT22;11349;53.412;-1.328;2023-12-20T07:42:08;8.80;99.90
22364;DHT22;11349;53.412;-1.328;2023-12-20T07:44:34;8.80;99.90
22364;DHT22;11349;53.412;-1.328;2023-12-20T07:47:01;8.70;99.90
22364;DHT22;11349;53.412;-1.328;2023-12-20T07:49:27;8.70;99.90
22364;DHT22;11349;53.412;-1.328;2023-12-20T07:51:53;8.80;99.90
22364;DHT22;11349;53.412;-1.328;2023-12-20T07:54:19;8.80;99.90
22364;DHT22;11349;53.412;-1.328;2023-12-20T07:56:46;8.80;99.90
22364;DHT22;11349;53.412;-1.328;2023-12-20T07:59:12;8.90;99.90
22364;DHT22;11349;53.412;-1.328;2023-12-20T08:01:37;8.90;99.90
22364;DHT22;11349;53.412;-1.328;2023-12-20T08:04:03;8.90;99.90
22364;DHT22;11349;53.412;-1.328;2023-12-20T08:06:29;8.90;99.90
22364;DHT22;11349;53.412;-1.328;2023-12-20T08:08:54;8.90;99.90
22364;DHT22;11349;53.412;-1.328;2023-12-20T08:11:20;9.00;99.90
22364;DHT22;11349;53.412;-1.328;2023-12-20T08:13:46;9.00;99.90
22364;DHT22;11349;53.412;-1.328;2023-12-20T08:16:12;9.20;99.90
22364;DHT22;11349;53.412;-1.328;2023-12-20T08:18:39;9.10;99.90
22364;DHT22;11349;53.412;-1.328;2023-12-20T08:21:05;9.10;99.90
22364;DHT22;11349;53.412;-1.328;2023-12-20T08:23:33;9.10;99.90
22364;DHT22;11349;53.412;-1.328;2023-12-20T08:26:07;9.00;99.90
22364;DHT22;11349;53.412;-1.328;2023-12-20T08:28:33;9.00;99.90
22364;DHT22;11349;53.412;-1.328;2023-12-20T08:30:59;9.10;99.90
22364;DHT22;11349;53.412;-1.328;2023-12-20T08:33:25;9.10;99.90
22364;DHT22;11349;53.412;-1.328;2023-12-20T08:35:51;9.10;99.90
22364;DHT22;11349;53.412;-1.328;2023-12-20T08:38:16;9.10;99.90
22364;DHT22;11349;53.412;-1.328;2023-12-20T08:40:43;9.10;99.90
22364;DHT22;11349;53.412;-1.328;2023-12-20T08:43:09;9.10;99.90
22364;DHT22;11349;53.412;-1.328;2023-12-20T08:45:35;9.10;99.90
22364;DHT22;11349;53.412;-1.328;2023-12-20T08:48:01;9.10;99.90
22364;DHT22;11349;53.412;-1.328;2023-12-20T08:50:27;9.20;99.90
22364;DHT22;11349;53.412;-1.328;2023-12-20T08:52:52;9.10;99.90
22364;DHT22;11349;53.412;-1.328;2023-12-20T08:55:19;9.20;99.90
22364;DHT22;11349;53.412;-1.328;2023-12-20T08:57:45;9.20;99.90
22364;DHT22;11349;53.412;-1.328;2023-12-20T09:00:11;9.10;99.90
22364;DHT22;11349;53.412;-1.328;2023-12-20T09:02:37;9.10;99.90
22364;DHT22;11349;53.412;-1.328;2023-12-20T09:05:03;9.10;99.90
22364;DHT22;11349;53.412;-1.328;2023-12-20T09:07:29;9.10;99.90
22364;DHT22;11349;53.412;-1.328;2023-12-20T09:09:57;9.00;99.90
22364;DHT22;11349;53.412;-1.328;2023-12-20T09:12:23;9.10;99.90
22364;DHT22;11349;53.412;-1.328;2023-12-20T09:14:50;9.20;99.90
22364;DHT22;11349;53.412;-1.328;2023-12-20T09:17:17;9.10;99.90
22364;DHT22;11349;53.412;-1.328;2023-12-20T09:19:43;9.20;99.90
22364;DHT22;11349;53.412;-1.328;2023-12-20T09:22:12;9.20;99.90
22364;DHT22;11349;53.412;-1.328;2023-12-20T09:24:38;9.20;99.90
22364;DHT22;11349;53.412;-1.328;2023-12-20T09:27:05;9.20;99.90
22364;DHT22;11349;53.412;-1.328;2023-12-20T09:29:31;9.30;99.90
22364;DHT22;11349;53.412;-1.328;2023-12-20T09:31:57;9.20;99.90
22364;DHT22;11349;53.412;-1.328;2023-12-20T09:34:23;9.40;99.90
22364;DHT22;11349;53.412;-1.328;2023-12-20T09:36:49;9.50;99.90
22364;DHT22;11349;53.412;-1.328;2023-12-20T09:39:16;9.40;99.90
22364;DHT22;11349;53.412;-1.328;2023-12-20T09:42:02;9.40;99.90
22364;DHT22;11349;53.412;-1.328;2023-12-20T09:44:29;9.40;99.90
22364;DHT22;11349;53.412;-1.328;2023-12-20T09:46:55;9.40;99.90
22364;DHT22;11349;53.412;-1.328;2023-12-20T09:49:21;9.40;99.90
22364;DHT22;11349;53.412;-1.328;2023-12-20T09:51:48;9.40;99.90
22364;DHT22;11349;53.412;-1.328;2023-12-20T09:54:18;9.40;99.90
22364;DHT22;11349;53.412;-1.328;2023-12-20T09:56:44;9.40;99.90
22364;DHT22;11349;53.412;-1.328;2023-12-20T09:59:10;9.50;99.90
22364;DHT22;11349;53.412;-1.328;2023-12-20T10:01:39;9.50;99.90
22364;DHT22;11349;53.412;-1.328;2023-12-20T10:04:06;9.60;99.90
22364;DHT22;11349;53.412;-1.328;2023-12-20T10:06:41;9.50;99.90
22364;DHT22;11349;53.412;-1.328;2023-12-20T10:09:07;9.80;99.90
22364;DHT22;11349;53.412;-1.328;2023-12-20T10:11:35;9.70;99.90
22364;DHT22;11349;53.412;-1.328;2023-12-20T10:14:03;9.80;99.90
22364;DHT22;11349;53.412;-1.328;2023-12-20T10:16:29;9.90;99.90
22364;DHT22;11349;53.412;-1.328;2023-12-20T10:18:56;10.00;99.90
22364;DHT22;11349;53.412;-1.328;2023-12-20T10:21:25;9.90;99.90
22364;DHT22;11349;53.412;-1.328;2023-12-20T10:23:55;10.10;99.90
22364;DHT22;11349;53.412;-1.328;2023-12-20T10:26:25;10.00;99.90
22364;DHT22;11349;53.412;-1.328;2023-12-20T10:28:53;10.10;99.90
22364;DHT22;11349;53.412;-1.328;2023-12-20T10:31:32;10.10;99.90
22364;DHT22;11349;53.412;-1.328;2023-12-20T10:33:58;10.30;99.90
22364;DHT22;11349;53.412;-1.328;2023-12-20T10:36:26;10.20;99.90
22364;DHT22;11349;53.412;-1.328;2023-12-20T10:38:53;10.30;99.90
22364;DHT22;11349;53.412;-1.328;2023-12-20T10:41:27;10.30;99.90
22364;DHT22;11349;53.412;-1.328;2023-12-20T10:43:59;10.60;99.90
22364;DHT22;11349;53.412;-1.328;2023-12-20T10:46:27;10.90;99.90
22364;DHT22;11349;53.412;-1.328;2023-12-20T10:48:54;10.70;99.90
22364;DHT22;11349;53.412;-1.328;2023-12-20T10:51:21;10.50;99.90
22364;DHT22;11349;53.412;-1.328;2023-12-20T10:53:48;10.50;99.90
22364;DHT22;11349;53.412;-1.328;2023-12-20T10:56:18;10.60;99.90
22364;DHT22;11349;53.412;-1.328;2023-12-20T10:58:49;10.50;99.90
22364;DHT22;11349;53.412;-1.328;2023-12-20T11:01:16;10.50;99.90
22364;DHT22;11349;53.412;-1.328;2023-12-20T11:03:49;10.50;99.90
22364;DHT22;11349;53.412;-1.328;2023-12-20T11:06:29;10.50;99.90
22364;DHT22;11349;53.412;-1.328;2023-12-20T11:14:19;10.40;99.90
22364;DHT22;11349;53.412;-1.328;2023-12-20T11:16:45;10.60;99.90
22364;DHT22;11349;53.412;-1.328;2023-12-20T11:19:11;10.50;99.90
22364;DHT22;11349;53.412;-1.328;2023-12-20T11:21:40;10.50;99.90
22364;DHT22;11349;53.412;-1.328;2023-12-20T11:24:06;10.70;99.90
22364;DHT22;11349;53.412;-1.328;2023-12-20T11:26:31;10.60;99.90
22364;DHT22;11349;53.412;-1.328;2023-12-20T11:29:29;10.60;99.90
22364;DHT22;11349;53.412;-1.328;2023-12-20T11:31:54;10.90;99.90
22364;DHT22;11349;53.412;-1.328;2023-12-20T11:34:20;10.70;99.90
22364;DHT22;11349;53.412;-1.328;2023-12-20T11:36:46;10.70;99.90
22364;DHT22;11349;53.412;-1.328;2023-12-20T11:39:12;10.60;99.90
22364;DHT22;11349;53.412;-1.328;2023-12-20T11:41:44;10.70;99.90
22364;DHT22;11349;53.412;-1.328;2023-12-20T11:44:10;10.90;99.90
22364;DHT22;11349;53.412;-1.328;2023-12-20T11:46:37;10.90;99.90
22364;DHT22;11349;53.412;-1.328;2023-12-20T11:49:02;10.80;99.90
22364;DHT22;11349;53.412;-1.328;2023-12-20T11:51:28;10.90;99.90
22364;DHT22;11349;53.412;-1.328;2023-12-20T11:53:54;10.90;99.90
22364;DHT22;11349;53.412;-1.328;2023-12-20T11:56:19;10.80;99.90
22364;DHT22;11349;53.412;-1.328;2023-12-20T11:58:45;10.90;99.90
22364;DHT22;11349;53.412;-1.328;2023-12-20T12:01:11;10.80;99.90
22364;DHT22;11349;53.412;-1.328;2023-12-20T12:03:37;11.20;99.90
22364;DHT22;11349;53.412;-1.328;2023-12-20T12:06:03;10.90;99.90
22364;DHT22;11349;53.412;-1.328;2023-12-20T12:08:30;10.80;99.90
22364;DHT22;11349;53.412;-1.328;2023-12-20T12:10:56;11.00;99.90
22364;DHT22;11349;53.412;-1.328;2023-12-20T12:13:22;10.90;99.90
22364;DHT22;11349;53.412;-1.328;2023-12-20T12:15:48;10.90;99.90
22364;DHT22;11349;53.412;-1.328;2023-12-20T12:18:16;10.80;99.90
22364;DHT22;11349;53.412;-1.328;2023-12-20T12:20:42;10.80;99.90
22364;DHT22;11349;53.412;-1.328;2023-12-20T12:23:08;10.80;99.90
22364;DHT22;11349;53.412;-1.328;2023-12-20T12:25:37;10.70;99.90
22364;DHT22;11349;53.412;-1.328;2023-12-20T12:28:03;10.80;99.90
22364;DHT22;11349;53.412;-1.328;2023-12-20T12:30:29;10.90;99.90
22364;DHT22;11349;53.412;-1.328;2023-12-20T12:32:57;11.00;99.90
22364;DHT22;11349;53.412;-1.328;2023-12-20T12:35:26;11.10;99.90
22364;DHT22;11349;53.412;-1.328;2023-12-20T12:37:52;11.30;99.90
22364;DHT22;11349;53.412;-1.328;2023-12-20T12:40:17;11.10;99.90
22364;DHT22;11349;53.412;-1.328;2023-12-20T12:42:44;11.20;99.90
22364;DHT22;11349;53.412;-1.328;2023-12-20T12:45:11;11.10;99.90
22364;DHT22;11349;53.412;-1.328;2023-12-20T12:47:37;11.30;99.90
22364;DHT22;11349;53.412;-1.328;2023-12-20T12:50:03;11.50;99.90
22364;DHT22;11349;53.412;-1.328;2023-12-20T12:52:30;11.40;99.90
22364;DHT22;11349;53.412;-1.328;2023-12-20T12:54:56;11.20;99.90
22364;DHT22;11349;53.412;-1.328;2023-12-20T12:57:22;11.10;99.90
22364;DHT22;11349;53.412;-1.328;2023-12-20T12:59:48;11.20;99.90
22364;DHT22;11349;53.412;-1.328;2023-12-20T13:02:14;11.20;99.90
22364;DHT22;11349;53.412;-1.328;2023-12-20T13:04:41;11.30;99.90
22364;DHT22;11349;53.412;-1.328;2023-12-20T13:07:09;11.30;99.90
22364;DHT22;11349;53.412;-1.328;2023-12-20T13:09:38;11.40;99.90
22364;DHT22;11349;53.412;-1.328;2023-12-20T13:12:05;11.30;99.90
22364;DHT22;11349;53.412;-1.328;2023-12-20T13:14:35;11.50;99.90
22364;DHT22;11349;53.412;-1.328;2023-12-20T13:17:02;11.30;99.90
22364;DHT22;11349;53.412;-1.328;2023-12-20T13:19:29;11.30;99.90
22364;DHT22;11349;53.412;-1.328;2023-12-20T13:21:55;11.30;99.90
22364;DHT22;11349;53.412;-1.328;2023-12-20T13:24:21;11.70;99.90
22364;DHT22;11349;53.412;-1.328;2023-12-20T13:26:47;11.70;99.90
22364;DHT22;11349;53.412;-1.328;2023-12-20T13:29:12;11.60;99.90
22364;DHT22;11349;53.412;-1.328;2023-12-20T13:31:38;11.40;99.90
22364;DHT22;11349;53.412;-1.328;2023-12-20T13:34:06;11.60;99.90
22364;DHT22;11349;53.412;-1.328;2023-12-20T13:36:32;11.70;99.90
22364;DHT22;11349;53.412;-1.328;2023-12-20T13:38:57;11.50;99.90
22364;DHT22;11349;53.412;-1.328;2023-12-20T13:41:23;11.70;99.90
22364;DHT22;11349;53.412;-1.328;2023-12-20T13:43:49;11.60;99.90
22364;DHT22;11349;53.412;-1.328;2023-12-20T13:46:15;11.40;99.90
22364;DHT22;11349;53.412;-1.328;2023-12-20T13:48:40;11.60;99.90
22364;DHT22;11349;53.412;-1.328;2023-12-20T13:51:07;11.40;99.90
22364;DHT22;11349;53.412;-1.328;2023-12-20T13:53:33;11.50;99.90
22364;DHT22;11349;53.412;-1.328;2023-12-20T13:55:59;11.40;99.90
22364;DHT22;11349;53.412;-1.328;2023-12-20T13:58:25;11.50;99.90
22364;DHT22;11349;53.412;-1.328;2023-12-20T14:00:51;11.30;99.90
22364;DHT22;11349;53.412;-1.328;2023-12-20T14:03:17;11.40;99.90
22364;DHT22;11349;53.412;-1.328;2023-12-20T14:05:42;11.70;99.90
22364;DHT22;11349;53.412;-1.328;2023-12-20T14:08:08;11.50;99.90
22364;DHT22;11349;53.412;-1.328;2023-12-20T14:10:35;11.60;99.90
22364;DHT22;11349;53.412;-1.328;2023-12-20T14:13:01;11.60;99.90
22364;DHT22;11349;53.412;-1.328;2023-12-20T14:15:26;11.60;99.90
22364;DHT22;11349;53.412;-1.328;2023-12-20T14:17:52;11.50;99.90
22364;DHT22;11349;53.412;-1.328;2023-12-20T14:20:18;11.40;99.90
22364;DHT22;11349;53.412;-1.328;2023-12-20T14:22:44;11.40;99.90
22364;DHT22;11349;53.412;-1.328;2023-12-20T14:25:14;11.40;99.90
22364;DHT22;11349;53.412;-1.328;2023-12-20T14:27:40;11.40;99.90
22364;DHT22;11349;53.412;-1.328;2023-12-20T14:30:09;11.40;99.90
22364;DHT22;11349;53.412;-1.328;2023-12-20T14:32:35;11.40;99.90
22364;DHT22;11349;53.412;-1.328;2023-12-20T14:35:05;11.50;99.90
22364;DHT22;11349;53.412;-1.328;2023-12-20T14:37:30;11.60;99.90
22364;DHT22;11349;53.412;-1.328;2023-12-20T14:39:56;11.50;99.90
22364;DHT22;11349;53.412;-1.328;2023-12-20T14:42:22;11.50;99.90
22364;DHT22;11349;53.412;-1.328;2023-12-20T14:44:48;11.60;99.90
22364;DHT22;11349;53.412;-1.328;2023-12-20T14:47:13;11.50;99.90
22364;DHT22;11349;53.412;-1.328;2023-12-20T14:49:41;11.50;99.90
22364;DHT22;11349;53.412;-1.328;2023-12-20T14:52:08;11.40;99.90
22364;DHT22;11349;53.412;-1.328;2023-12-20T14:54:37;11.80;99.90
22364;DHT22;11349;53.412;-1.328;2023-12-20T14:57:03;11.80;99.90
22364;DHT22;11349;53.412;-1.328;2023-12-20T14:59:28;11.60;99.90
22364;DHT22;11349;53.412;-1.328;2023-12-20T15:01:54;11.80;99.90
22364;DHT22;11349;53.412;-1.328;2023-12-20T15:04:20;11.60;99.90
22364;DHT22;11349;53.412;-1.328;2023-12-20T15:06:54;12.00;99.90
22364;DHT22;11349;53.412;-1.328;2023-12-20T15:09:20;11.80;99.90
22364;DHT22;11349;53.412;-1.328;2023-12-20T15:11:45;11.80;99.90
22364;DHT22;11349;53.412;-1.328;2023-12-20T15:14:11;11.80;99.90
22364;DHT22;11349;53.412;-1.328;2023-12-20T15:16:40;11.70;99.90
22364;DHT22;11349;53.412;-1.328;2023-12-20T15:19:05;11.70;99.90
22364;DHT22;11349;53.412;-1.328;2023-12-20T15:21:31;11.60;99.90
22364;DHT22;11349;53.412;-1.328;2023-12-20T15:23:59;11.40;99.90
22364;DHT22;11349;53.412;-1.328;2023-12-20T15:26:39;11.40;99.90